Time,TemperatureF,DewpointF,PressureIn,WindDirection,WindDirectionDegrees,WindSpeedMPH,WindSpeedGustMPH,Humidity,HourlyPrecipIn,Conditions,Clouds,dailyrainin,SoftwareType,DateUTC
2013-03-16 00:01:00,62.0,44.7,29.94,WSW,246,3.0,3.0,53,0.00,,,0.00,Wunderground v.1.15,2013-03-16 04:01:00,
2013-03-16 00:11:00,61.7,44.4,29.94,SW,219,2.0,2.0,53,0.00,,,0.00,Wunderground v.1.15,2013-03-16 04:11:00,
2013-03-16 00:20:00,61.4,44.6,29.93,SW,226,2.0,3.0,54,0.00,,,0.00,Wunderground v.1.15,2013-03-16 04:20:00,
2013-03-16 00:30:00,61.1,44.3,29.93,South,179,2.0,2.0,54,0.00,,,0.00,Wunderground v.1.15,2013-03-16 04:30:00,
2013-03-16 00:40:00,60.9,44.6,29.93,SSW,207,3.0,3.0,55,0.00,,,0.00,Wunderground v.1.15,2013-03-16 04:40:00,
2013-03-16 00:50:00,60.5,44.2,29.93,SSE,161,3.0,3.0,55,0.00,,,0.00,Wunderground v.1.15,2013-03-16 04:50:00,
2013-03-16 01:02:00,60.0,44.3,29.93,SSE,147,2.0,2.0,56,0.00,,,0.00,Wunderground v.1.15,2013-03-16 05:02:00,
2013-03-16 01:11:00,59.5,44.7,29.93,SSW,192,2.0,2.0,58,0.00,,,0.00,Wunderground v.1.15,2013-03-16 05:11:00,
2013-03-16 01:21:00,59.3,44.5,29.92,South,173,2.0,3.0,58,0.00,,,0.00,Wunderground v.1.15,2013-03-16 05:21:00,
2013-03-16 01:31:00,59.0,44.7,29.92,SW,236,2.0,2.0,59,0.00,,,0.00,Wunderground v.1.15,2013-03-16 05:31:00,
2013-03-16 01:41:00,59.0,44.7,29.92,SSW,192,2.0,2.0,59,0.00,,,0.00,Wunderground v.1.15,2013-03-16 05:41:00,
2013-03-16 01:51:00,58.9,44.6,29.92,SSW,199,1.0,3.0,59,0.00,,,0.00,Wunderground v.1.15,2013-03-16 05:51:00,
2013-03-16 02:01:00,58.7,44.4,29.92,SSW,209,2.0,2.0,59,0.00,,,0.00,Wunderground v.1.15,2013-03-16 06:01:00,
2013-03-16 02:11:00,58.5,44.7,29.92,South,177,1.0,1.0,60,0.00,,,0.00,Wunderground v.1.15,2013-03-16 06:11:00,
2013-03-16 02:20:00,58.4,45.0,29.92,SSW,196,2.0,4.0,61,0.00,,,0.00,Wunderground v.1.15,2013-03-16 06:20:00,
2013-03-16 02:30:00,58.7,44.8,29.92,SW,216,2.0,2.0,60,0.00,,,0.00,Wunderground v.1.15,2013-03-16 06:30:00,
2013-03-16 02:40:00,58.7,44.8,29.92,SW,220,1.0,4.0,60,0.00,,,0.00,Wunderground v.1.15,2013-03-16 06:40:00,
2013-03-16 02:52:00,58.2,44.8,29.92,SW,225,1.0,1.0,61,0.00,,,0.00,Wunderground v.1.15,2013-03-16 06:52:00,
2013-03-16 03:02:00,57.8,44.9,29.92,SSW,212,1.0,4.0,62,0.00,,,0.00,Wunderground v.1.15,2013-03-16 07:02:00,
2013-03-16 03:12:00,57.4,44.9,29.92,WSW,240,1.0,3.0,63,0.00,,,0.00,Wunderground v.1.15,2013-03-16 07:12:00,
2013-03-16 03:22:00,57.2,45.1,29.93,SW,223,1.0,1.0,64,0.00,,,0.00,Wunderground v.1.15,2013-03-16 07:22:00,
2013-03-16 03:31:00,56.9,44.8,29.93,SW,223,0.0,0.0,64,0.00,,,0.00,Wunderground v.1.15,2013-03-16 07:31:00,
2013-03-16 03:41:00,56.9,45.3,29.92,South,175,1.0,6.0,65,0.00,,,0.00,Wunderground v.1.15,2013-03-16 07:41:00,
2013-03-16 03:51:00,56.8,45.6,29.92,SSE,159,1.0,1.0,66,0.00,,,0.00,Wunderground v.1.15,2013-03-16 07:51:00,
2013-03-16 04:01:00,56.4,45.2,29.92,SSW,192,1.0,1.0,66,0.00,,,0.00,Wunderground v.1.15,2013-03-16 08:01:00,
2013-03-16 04:10:00,56.2,45.4,29.92,SW,223,0.0,1.0,67,0.00,,,0.00,Wunderground v.1.15,2013-03-16 08:10:00,
2013-03-16 04:20:00,56.4,45.6,29.92,SW,224,0.0,0.0,67,0.00,,,0.00,Wunderground v.1.15,2013-03-16 08:20:00,
2013-03-16 04:30:00,56.7,45.9,29.92,SW,220,1.0,1.0,67,0.00,,,0.00,Wunderground v.1.15,2013-03-16 08:30:00,
2013-03-16 04:40:00,57.2,45.9,29.92,SW,219,1.0,2.0,66,0.00,,,0.00,Wunderground v.1.15,2013-03-16 08:40:00,
2013-03-16 04:52:00,57.4,46.1,29.92,SW,215,1.0,2.0,66,0.00,,,0.00,Wunderground v.1.15,2013-03-16 08:52:00,
2013-03-16 05:02:00,57.3,46.4,29.92,SSW,208,2.0,2.0,67,0.00,,,0.00,Wunderground v.1.15,2013-03-16 09:02:00,
2013-03-16 05:12:00,57.0,45.7,29.92,SW,215,1.0,1.0,66,0.00,,,0.00,Wunderground v.1.15,2013-03-16 09:12:00,
2013-03-16 05:22:00,57.0,46.1,29.92,SW,215,1.0,6.0,67,0.00,,,0.00,Wunderground v.1.15,2013-03-16 09:22:00,
2013-03-16 05:31:00,56.6,45.8,29.92,SW,231,2.0,3.0,67,0.00,,,0.00,Wunderground v.1.15,2013-03-16 09:31:00,
2013-03-16 05:41:00,56.6,45.8,29.92,WSW,237,1.0,1.0,67,0.00,,,0.00,Wunderground v.1.15,2013-03-16 09:41:00,
2013-03-16 05:51:00,56.5,45.7,29.93,SW,227,2.0,2.0,67,0.00,,,0.00,Wunderground v.1.15,2013-03-16 09:51:00,
2013-03-16 06:01:00,56.4,46.0,29.93,SSW,211,1.0,1.0,68,0.00,,,0.00,Wunderground v.1.15,2013-03-16 10:01:00,
2013-03-16 06:10:00,56.2,45.8,29.93,South,186,1.0,5.0,68,0.00,,,0.00,Wunderground v.1.15,2013-03-16 10:10:00,
2013-03-16 06:20:00,56.1,45.7,29.93,WSW,238,1.0,1.0,68,0.00,,,0.00,Wunderground v.1.15,2013-03-16 10:20:00,
2013-03-16 06:30:00,55.8,45.8,29.93,South,175,1.0,1.0,69,0.00,,,0.00,Wunderground v.1.15,2013-03-16 10:30:00,
2013-03-16 06:40:00,55.2,45.2,29.93,SSE,166,1.0,1.0,69,0.00,,,0.00,Wunderground v.1.15,2013-03-16 10:40:00,
2013-03-16 06:52:00,55.1,45.5,29.93,SW,217,2.0,2.0,70,0.00,,,0.00,Wunderground v.1.15,2013-03-16 10:52:00,
2013-03-16 07:02:00,54.8,45.2,29.93,SW,230,0.0,0.0,70,0.00,,,0.00,Wunderground v.1.15,2013-03-16 11:02:00,
2013-03-16 07:12:00,54.5,45.3,29.93,SSW,206,0.0,0.0,71,0.00,,,0.00,Wunderground v.1.15,2013-03-16 11:12:00,
2013-03-16 07:21:00,54.1,45.3,29.94,SW,215,1.0,1.0,72,0.00,,,0.00,Wunderground v.1.15,2013-03-16 11:21:00,
2013-03-16 07:31:00,53.8,45.0,29.94,SSW,209,0.0,0.0,72,0.00,,,0.00,Wunderground v.1.15,2013-03-16 11:31:00,
2013-03-16 07:41:00,53.7,45.2,29.94,West,268,1.0,3.0,73,0.00,,,0.00,Wunderground v.1.15,2013-03-16 11:41:00,
2013-03-16 07:51:00,53.9,45.1,29.95,West,275,1.0,3.0,72,0.00,,,0.00,Wunderground v.1.15,2013-03-16 11:51:00,
2013-03-16 08:01:00,53.9,45.1,29.95,WSW,242,1.0,1.0,72,0.00,,,0.00,Wunderground v.1.15,2013-03-16 12:01:00,
2013-03-16 08:10:00,53.9,45.4,29.95,SW,215,1.0,4.0,73,0.00,,,0.00,Wunderground v.1.15,2013-03-16 12:10:00,
2013-03-16 08:20:00,54.2,45.4,29.95,South,173,1.0,1.0,72,0.00,,,0.00,Wunderground v.1.15,2013-03-16 12:20:00,
2013-03-16 08:30:00,54.5,45.7,29.95,WSW,246,1.0,1.0,72,0.00,,,0.00,Wunderground v.1.15,2013-03-16 12:30:00,
2013-03-16 08:40:00,55.0,45.8,29.95,SSW,202,1.0,1.0,71,0.00,,,0.00,Wunderground v.1.15,2013-03-16 12:40:00,
2013-03-16 08:52:00,56.0,46.0,29.95,South,182,1.0,1.0,69,0.00,,,0.00,Wunderground v.1.15,2013-03-16 12:52:00,
2013-03-16 09:02:00,56.8,46.3,29.95,WSW,241,1.0,1.0,68,0.00,,,0.00,Wunderground v.1.15,2013-03-16 13:02:00,
2013-03-16 09:12:00,58.0,47.1,29.96,WNW,284,1.0,1.0,67,0.00,,,0.00,Wunderground v.1.15,2013-03-16 13:12:00,
2013-03-16 09:21:00,59.0,46.8,29.95,WSW,240,2.0,2.0,64,0.00,,,0.00,Wunderground v.1.15,2013-03-16 13:21:00,
2013-03-16 09:31:00,59.7,47.1,29.95,WNW,303,2.0,2.0,63,0.00,,,0.00,Wunderground v.1.15,2013-03-16 13:31:00,
2013-03-16 09:41:00,60.4,47.3,29.95,NW,317,3.0,3.0,62,0.00,,,0.00,Wunderground v.1.15,2013-03-16 13:41:00,
2013-03-16 09:51:00,61.5,47.9,29.95,South,171,2.0,8.0,61,0.00,,,0.00,Wunderground v.1.15,2013-03-16 13:51:00,
2013-03-16 10:01:00,62.2,47.7,29.95,SW,224,3.0,3.0,59,0.00,,,0.00,Wunderground v.1.15,2013-03-16 14:01:00,
2013-03-16 10:10:00,62.8,47.8,29.95,SW,225,2.0,2.0,58,0.00,,,0.00,Wunderground v.1.15,2013-03-16 14:10:00,
2013-03-16 10:20:00,64.0,48.9,29.94,NW,319,2.0,5.0,58,0.00,,,0.00,Wunderground v.1.15,2013-03-16 14:20:00,
2013-03-16 10:30:00,64.9,48.3,29.94,North,351,2.0,4.0,55,0.00,,,0.00,Wunderground v.1.15,2013-03-16 14:30:00,
2013-03-16 10:40:00,65.2,48.6,29.94,West,259,3.0,4.0,55,0.00,,,0.00,Wunderground v.1.15,2013-03-16 14:40:00,
2013-03-16 10:52:00,66.2,49.1,29.93,SSE,151,3.0,6.0,54,0.00,,,0.00,Wunderground v.1.15,2013-03-16 14:52:00,
2013-03-16 11:02:00,67.3,49.1,29.93,SSW,211,2.0,2.0,52,0.00,,,0.00,Wunderground v.1.15,2013-03-16 15:02:00,
2013-03-16 11:11:00,67.9,49.1,29.93,NNE,12,3.0,5.0,51,0.00,,,0.00,Wunderground v.1.15,2013-03-16 15:11:00,
2013-03-16 11:21:00,68.5,48.6,29.93,SW,221,3.0,3.0,49,0.00,,,0.00,Wunderground v.1.15,2013-03-16 15:21:00,
2013-03-16 11:31:00,69.2,49.2,29.93,SSW,194,5.0,5.0,49,0.00,,,0.00,Wunderground v.1.15,2013-03-16 15:31:00,
2013-03-16 11:41:00,70.2,49.0,29.92,SW,218,3.0,7.0,47,0.00,,,0.00,Wunderground v.1.15,2013-03-16 15:41:00,
2013-03-16 11:51:00,71.2,49.4,29.91,SSW,200,4.0,6.0,46,0.00,,,0.00,Wunderground v.1.15,2013-03-16 15:51:00,
2013-03-16 12:01:00,71.9,48.8,29.91,WNW,286,3.0,3.0,44,0.00,,,0.00,Wunderground v.1.15,2013-03-16 16:01:00,
2013-03-16 12:11:00,72.8,47.7,29.91,NW,311,3.0,6.0,41,0.00,,,0.00,Wunderground v.1.15,2013-03-16 16:11:00,
2013-03-16 12:20:00,73.5,48.4,29.90,West,269,2.0,2.0,41,0.00,,,0.00,Wunderground v.1.15,2013-03-16 16:20:00,
2013-03-16 12:30:00,74.3,47.7,29.90,SSW,207,4.0,9.0,39,0.00,,,0.00,Wunderground v.1.15,2013-03-16 16:30:00,
2013-03-16 12:42:00,74.1,48.9,29.89,West,265,3.0,6.0,41,0.00,,,0.00,Wunderground v.1.15,2013-03-16 16:42:00,
2013-03-16 12:52:00,74.9,48.3,29.88,NNW,336,5.0,5.0,39,0.00,,,0.00,Wunderground v.1.15,2013-03-16 16:52:00,
2013-03-16 13:02:00,75.3,47.9,29.88,SSW,198,5.0,5.0,38,0.00,,,0.00,Wunderground v.1.15,2013-03-16 17:02:00,
2013-03-16 13:11:00,75.8,47.7,29.88,NNE,27,5.0,5.0,37,0.00,,,0.00,Wunderground v.1.15,2013-03-16 17:11:00,
2013-03-16 13:21:00,75.6,48.2,29.87,SW,235,4.0,4.0,38,0.00,,,0.00,Wunderground v.1.15,2013-03-16 17:21:00,
2013-03-16 13:31:00,76.3,48.1,29.87,SE,130,4.0,4.0,37,0.00,,,0.00,Wunderground v.1.15,2013-03-16 17:31:00,
2013-03-16 13:41:00,77.2,48.9,29.86,SW,219,4.0,7.0,37,0.00,,,0.00,Wunderground v.1.15,2013-03-16 17:41:00,
2013-03-16 13:51:00,77.1,48.8,29.85,West,267,4.0,4.0,37,0.00,,,0.00,Wunderground v.1.15,2013-03-16 17:51:00,
2013-03-16 14:00:00,78.0,48.1,29.85,WSW,240,3.0,6.0,35,0.00,,,0.00,Wunderground v.1.15,2013-03-16 18:00:00,
2013-03-16 14:10:00,77.3,47.5,29.85,WSW,244,5.0,10.0,35,0.00,,,0.00,Wunderground v.1.15,2013-03-16 18:10:00,
2013-03-16 14:20:00,76.8,47.8,29.84,South,186,7.0,7.0,36,0.00,,,0.00,Wunderground v.1.15,2013-03-16 18:20:00,
2013-03-16 14:30:00,77.4,48.3,29.84,NW,311,5.0,8.0,36,0.00,,,0.00,Wunderground v.1.15,2013-03-16 18:30:00,
2013-03-16 14:42:00,77.9,47.3,29.83,SE,131,6.0,8.0,34,0.00,,,0.00,Wunderground v.1.15,2013-03-16 18:42:00,
2013-03-16 14:52:00,78.2,48.3,29.82,SSE,168,5.0,9.0,35,0.00,,,0.00,Wunderground v.1.15,2013-03-16 18:52:00,
2013-03-16 15:02:00,78.4,47.7,29.82,WSW,242,5.0,5.0,34,0.00,,,0.00,Wunderground v.1.15,2013-03-16 19:02:00,
2013-03-16 15:11:00,78.4,48.5,29.82,WNW,283,4.0,4.0,35,0.00,,,0.00,Wunderground v.1.15,2013-03-16 19:11:00,
2013-03-16 15:21:00,78.5,47.0,29.82,SSW,210,5.0,6.0,33,0.00,,,0.00,Wunderground v.1.15,2013-03-16 19:21:00,
2013-03-16 15:31:00,78.7,47.2,29.82,SSW,203,6.0,7.0,33,0.00,,,0.00,Wunderground v.1.15,2013-03-16 19:31:00,
2013-03-16 15:41:00,78.6,46.3,29.81,SW,223,6.0,6.0,32,0.00,,,0.00,Wunderground v.1.15,2013-03-16 19:41:00,
2013-03-16 15:51:00,78.7,46.4,29.80,SW,236,5.0,5.0,32,0.00,,,0.00,Wunderground v.1.15,2013-03-16 19:51:00,
2013-03-16 16:01:00,79.4,47.8,29.80,SW,217,4.0,4.0,33,0.00,,,0.00,Wunderground v.1.15,2013-03-16 20:01:00,
2013-03-16 16:10:00,79.4,47.8,29.80,SSE,163,5.0,10.0,33,0.00,,,0.00,Wunderground v.1.15,2013-03-16 20:10:00,
2013-03-16 16:20:00,79.4,47.8,29.80,SSW,194,1.0,1.0,33,0.00,,,0.00,Wunderground v.1.15,2013-03-16 20:20:00,
2013-03-16 16:30:00,79.1,47.5,29.80,WSW,247,0.0,0.0,33,0.00,,,0.00,Wunderground v.1.15,2013-03-16 20:30:00,
2013-03-16 16:42:00,79.1,47.5,29.80,SW,234,0.0,0.0,33,0.00,,,0.00,Wunderground v.1.15,2013-03-16 20:42:00,
2013-03-16 16:52:00,79.0,47.4,29.79,West,267,0.0,0.0,33,0.00,,,0.00,Wunderground v.1.15,2013-03-16 20:52:00,
2013-03-16 17:02:00,78.7,46.4,29.79,West,271,0.0,0.0,32,0.00,,,0.00,Wunderground v.1.15,2013-03-16 21:02:00,
2013-03-16 17:11:00,78.4,46.1,29.79,WSW,257,0.0,0.0,32,0.00,,,0.00,Wunderground v.1.15,2013-03-16 21:11:00,
2013-03-16 17:21:00,77.9,46.5,29.79,West,259,0.0,0.0,33,0.00,,,0.00,Wunderground v.1.15,2013-03-16 21:21:00,
2013-03-16 17:31:00,77.9,47.3,29.79,WSW,252,0.0,0.0,34,0.00,,,0.00,Wunderground v.1.15,2013-03-16 21:31:00,
2013-03-16 17:41:00,77.6,47.0,29.79,SSW,213,0.0,0.0,34,0.00,,,0.00,Wunderground v.1.15,2013-03-16 21:41:00,
2013-03-16 17:51:00,77.1,46.6,29.80,SSE,150,0.0,0.0,34,0.00,,,0.00,Wunderground v.1.15,2013-03-16 21:51:00,
2013-03-16 18:01:00,76.7,46.2,29.80,SSE,150,0.0,0.0,34,0.00,,,0.00,Wunderground v.1.15,2013-03-16 22:01:00,
2013-03-16 18:11:00,76.6,46.1,29.80,SSE,159,0.0,0.0,34,0.00,,,0.00,Wunderground v.1.15,2013-03-16 22:11:00,
2013-03-16 18:20:00,76.3,45.9,29.80,SW,226,0.0,0.0,34,0.00,,,0.00,Wunderground v.1.15,2013-03-16 22:20:00,
2013-03-16 18:30:00,76.1,46.5,29.80,SSW,198,0.0,0.0,35,0.00,,,0.00,Wunderground v.1.15,2013-03-16 22:30:00,
2013-03-16 18:42:00,75.6,46.8,29.80,NW,317,0.0,0.0,36,0.00,,,0.00,Wunderground v.1.15,2013-03-16 22:42:00,
2013-03-16 18:52:00,75.4,46.6,29.80,SW,216,0.0,0.0,36,0.00,,,0.00,Wunderground v.1.15,2013-03-16 22:52:00,
2013-03-16 19:01:00,75.1,46.3,29.80,South,188,0.0,0.0,36,0.00,,,0.00,Wunderground v.1.15,2013-03-16 23:01:00,
2013-03-16 19:11:00,74.6,45.9,29.81,WSW,252,0.0,0.0,36,0.00,,,0.00,Wunderground v.1.15,2013-03-16 23:11:00,
2013-03-16 19:21:00,74.3,46.3,29.81,SSW,210,0.0,0.0,37,0.00,,,0.00,Wunderground v.1.15,2013-03-16 23:21:00,
2013-03-16 19:31:00,73.6,46.4,29.81,SW,232,0.0,0.0,38,0.00,,,0.00,Wunderground v.1.15,2013-03-16 23:31:00,
2013-03-16 19:41:00,73.0,46.6,29.82,SW,235,0.0,0.0,39,0.00,,,0.00,Wunderground v.1.15,2013-03-16 23:41:00,
2013-03-16 19:51:00,72.4,46.7,29.82,WSW,237,0.0,0.0,40,0.00,,,0.00,Wunderground v.1.15,2013-03-16 23:51:00,
2013-03-16 20:01:00,71.8,46.8,29.82,South,188,0.0,0.0,41,0.00,,,0.00,Wunderground v.1.15,2013-03-17 00:01:00,
2013-03-16 20:10:00,70.9,46.7,29.82,South,187,0.0,0.0,42,0.00,,,0.00,Wunderground v.1.15,2013-03-17 00:10:00,
2013-03-16 20:20:00,70.1,45.9,29.83,SW,223,0.0,0.0,42,0.00,,,0.00,Wunderground v.1.15,2013-03-17 00:20:00,
2013-03-16 20:30:00,69.8,46.9,29.83,South,186,0.0,0.0,44,0.00,,,0.00,Wunderground v.1.15,2013-03-17 00:30:00,
2013-03-16 20:42:00,68.9,46.7,29.83,South,190,0.0,0.0,45,0.00,,,0.00,Wunderground v.1.15,2013-03-17 00:42:00,
2013-03-16 20:52:00,68.9,46.7,29.84,SW,236,0.0,0.0,45,0.00,,,0.00,Wunderground v.1.15,2013-03-17 00:52:00,
2013-03-16 21:01:00,68.5,46.9,29.84,SW,234,0.0,0.0,46,0.00,,,0.00,Wunderground v.1.15,2013-03-17 01:01:00,
2013-03-16 21:11:00,67.7,46.7,29.85,SW,232,1.0,1.0,47,0.00,,,0.00,Wunderground v.1.15,2013-03-17 01:11:00,
2013-03-16 21:21:00,66.7,46.9,29.85,SW,226,0.0,0.0,49,0.00,,,0.00,Wunderground v.1.15,2013-03-17 01:21:00,
2013-03-16 21:31:00,66.1,46.9,29.85,SW,226,0.0,0.0,50,0.00,,,0.00,Wunderground v.1.15,2013-03-17 01:31:00,
2013-03-16 21:41:00,65.3,47.7,29.85,South,182,0.0,3.0,53,0.00,,,0.00,Wunderground v.1.15,2013-03-17 01:41:00,
2013-03-16 21:51:00,64.8,46.8,29.86,South,178,0.0,0.0,52,0.00,,,0.00,Wunderground v.1.15,2013-03-17 01:51:00,
2013-03-16 22:01:00,64.4,47.4,29.86,SSW,209,0.0,0.0,54,0.00,,,0.00,Wunderground v.1.15,2013-03-17 02:01:00,
2013-03-16 22:10:00,64.5,47.5,29.86,SSW,194,1.0,1.0,54,0.00,,,0.00,Wunderground v.1.15,2013-03-17 02:10:00,
2013-03-16 22:20:00,64.6,47.1,29.86,SSW,196,1.0,3.0,53,0.00,,,0.00,Wunderground v.1.15,2013-03-17 02:20:00,
2013-03-16 22:32:00,65.2,47.6,29.86,SW,215,2.0,6.0,53,0.00,,,0.00,Wunderground v.1.15,2013-03-17 02:32:00,
2013-03-16 22:42:00,64.9,47.9,29.87,SE,136,2.0,4.0,54,0.00,,,0.00,Wunderground v.1.15,2013-03-17 02:42:00,
2013-03-16 22:52:00,65.4,47.8,29.88,South,181,2.0,3.0,53,0.00,,,0.00,Wunderground v.1.15,2013-03-17 02:52:00,
2013-03-16 23:02:00,65.3,48.2,29.88,SW,221,1.0,1.0,54,0.00,,,0.00,Wunderground v.1.15,2013-03-17 03:02:00,
2013-03-16 23:11:00,65.2,48.6,29.88,SW,217,1.0,4.0,55,0.00,,,0.00,Wunderground v.1.15,2013-03-17 03:11:00,
2013-03-16 23:21:00,65.2,48.6,29.88,WSW,242,2.0,3.0,55,0.00,,,0.00,Wunderground v.1.15,2013-03-17 03:21:00,
2013-03-16 23:31:00,64.8,48.7,29.88,SSE,155,2.0,2.0,56,0.00,,,0.00,Wunderground v.1.15,2013-03-17 03:31:00,
2013-03-16 23:41:00,64.8,48.7,29.87,SSW,202,2.0,2.0,56,0.00,,,0.00,Wunderground v.1.15,2013-03-17 03:41:00,
2013-03-16 23:51:00,64.7,48.6,29.87,SSW,211,2.0,3.0,56,0.00,,,0.00,Wunderground v.1.15,2013-03-17 03:51:00,